Time;durP1;ratioP1;P1;durP2;ratioP2;P2;SDS_P1;SDS_P2;PMS_P1;PMS_P2;Temp;Humidity;BMP_temperature;BMP_pressure;BME280_temperature;BME280_humidity;BME280_pressure;Samples;Min_cycle;Max_cycle;Signal;HPM_P1;HPM_P2
2022/05/12 00:01:27;;;;;;;9.77;8.07;;;17.70;99.90;;;;;;5092262;28;20657;-76
2022/05/12 00:03:54;;;;;;;8.88;8.05;;;17.60;99.90;;;;;;5092881;28;20251;-75
2022/05/12 00:06:22;;;;;;;9.52;8.27;;;17.50;99.90;;;;;;5091843;28;20254;-77
2022/05/12 00:08:48;;;;;;;10.77;8.30;;;17.40;99.90;;;;;;5092784;28;20613;-76
2022/05/12 00:11:15;;;;;;;8.95;8.05;;;17.50;99.90;;;;;;5092357;28;20205;-76
2022/05/12 00:13:44;;;;;;;8.10;7.30;;;17.40;99.90;;;;;;5092537;28;20753;-76
2022/05/12 00:16:11;;;;;;;8.60;7.70;;;17.40;99.90;;;;;;5092519;28;20258;-75
2022/05/12 00:18:38;;;;;;;7.97;7.25;;;17.50;99.90;;;;;;5092756;28;20233;-77
2022/05/12 00:21:05;;;;;;;9.93;8.30;;;17.30;99.90;;;;;;5092969;28;20198;-76
2022/05/12 00:23:31;;;;;;;8.02;7.28;;;17.20;99.90;;;;;;5092524;28;20201;-76
2022/05/12 00:25:59;;;;;;;8.15;7.32;;;17.10;99.90;;;;;;5092527;28;20197;-74
2022/05/12 00:28:27;;;;;;;8.15;6.45;;;17.00;99.90;;;;;;5091759;28;20648;-74
2022/05/12 00:30:58;;;;;;;6.95;6.25;;;16.80;99.90;;;;;;5092580;28;20201;-72
2022/05/12 00:33:27;;;;;;;7.78;6.90;;;16.80;99.90;;;;;;5091749;28;20251;-76
2022/05/12 00:35:57;;;;;;;9.13;8.27;;;16.90;99.90;;;;;;5092495;28;20197;-75
2022/05/12 00:38:24;;;;;;;11.10;8.98;;;17.10;99.90;;;;;;5077162;28;20230;-75
2022/05/12 00:40:51;;;;;;;8.77;7.97;;;16.90;99.90;;;;;;5071785;28;20256;-76
2022/05/12 00:43:38;;;;;;;7.97;6.82;;;17.00;99.90;;;;;;5071335;28;20202;-71
2022/05/12 00:46:09;;;;;;;7.32;6.72;;;17.10;99.90;;;;;;5072208;28;20765;-78
2022/05/12 00:48:36;;;;;;;10.65;7.28;;;16.90;99.90;;;;;;5072056;28;20251;-71
2022/05/12 00:51:04;;;;;;;9.10;8.13;;;16.90;99.90;;;;;;5072149;28;20210;-73
2022/05/12 00:53:34;;;;;;;10.35;6.93;;;17.00;99.90;;;;;;5071501;28;20252;-72
2022/05/12 00:56:01;;;;;;;8.38;6.97;;;16.90;99.90;;;;;;5071651;28;20225;-72
2022/05/12 00:58:32;;;;;;;7.43;6.30;;;16.70;99.90;;;;;;5070925;28;20829;-73
2022/05/12 01:00:59;;;;;;;7.95;7.25;;;16.80;99.90;;;;;;5071531;28;20662;-70
2022/05/12 01:03:28;;;;;;;7.60;6.82;;;16.80;99.90;;;;;;5071029;28;20213;-74
2022/05/12 01:05:56;;;;;;;10.80;7.05;;;16.80;99.90;;;;;;5071318;28;20251;-73
2022/05/12 01:08:24;;;;;;;8.93;6.88;;;16.80;99.90;;;;;;5070997;28;20210;-74
2022/05/12 01:10:55;;;;;;;6.45;5.85;;;16.70;99.90;;;;;;5071410;28;20259;-73
2022/05/12 01:13:22;;;;;;;6.85;6.30;;;16.60;99.90;;;;;;5070820;28;20212;-77
2022/05/12 01:15:51;;;;;;;10.48;6.75;;;16.70;99.90;;;;;;5071307;28;20205;-78
2022/05/12 01:18:18;;;;;;;8.65;6.65;;;16.70;99.90;;;;;;5070130;28;20318;-73
2022/05/12 01:20:47;;;;;;;7.75;6.38;;;16.70;99.90;;;;;;5071324;28;20281;-71
2022/05/12 01:23:27;;;;;;;7.22;6.18;;;16.70;99.90;;;;;;5070770;28;20251;-75
2022/05/12 01:25:59;;;;;;;6.82;6.22;;;16.80;99.90;;;;;;5071336;28;20228;-76
2022/05/12 01:28:27;;;;;;;8.15;5.97;;;16.80;99.90;;;;;;5070369;28;20587;-75
2022/05/12 01:30:54;;;;;;;5.95;5.35;;;16.70;99.90;;;;;;5071158;28;20210;-77
2022/05/12 01:33:21;;;;;;;6.80;6.25;;;16.80;99.90;;;;;;5070658;28;20674;-77
2022/05/12 01:35:48;;;;;;;6.78;6.18;;;16.90;99.90;;;;;;5071304;28;20206;-78
2022/05/12 01:38:15;;;;;;;8.75;6.03;;;16.90;99.90;;;;;;5071009;28;20225;-70
2022/05/12 01:40:45;;;;;;;7.82;7.10;;;16.80;99.90;;;;;;5070501;28;20677;-69
2022/05/12 01:43:13;;;;;;;6.65;5.95;;;16.80;99.90;;;;;;5070549;28;20582;-73
2022/05/12 01:45:40;;;;;;;6.43;5.57;;;16.90;99.90;;;;;;5071196;28;20202;-74
2022/05/12 01:48:11;;;;;;;7.20;5.95;;;16.80;99.90;;;;;;5070935;28;20259;-70
2022/05/12 01:50:40;;;;;;;7.80;7.13;;;16.60;99.90;;;;;;5070817;28;20198;-75
2022/05/12 01:53:09;;;;;;;5.95;5.28;;;16.60;99.90;;;;;;5070804;28;20212;-75
2022/05/12 01:55:36;;;;;;;5.38;4.65;;;16.60;99.90;;;;;;5070631;28;20289;-71
2022/05/12 01:58:05;;;;;;;8.13;6.20;;;16.60;99.90;;;;;;5071020;28;20713;-75
2022/05/12 02:00:32;;;;;;;6.72;5.45;;;16.60;99.90;;;;;;5070815;28;20202;-75
2022/05/12 02:03:01;;;;;;;7.47;5.38;;;16.60;99.90;;;;;;5070897;28;20259;-75
2022/05/12 02:05:29;;;;;;;5.82;5.28;;;16.60;99.90;;;;;;5070112;28;20835;-73
2022/05/12 02:07:56;;;;;;;6.82;5.60;;;16.60;99.90;;;;;;5070669;28;20612;-77
2022/05/12 02:10:26;;;;;;;5.90;5.40;;;16.60;99.90;;;;;;5070343;28;20300;-75
2022/05/12 02:12:53;;;;;;;6.50;5.25;;;16.50;99.90;;;;;;5070553;28;20685;-76
2022/05/12 02:15:23;;;;;;;5.18;4.40;;;16.60;99.90;;;;;;5070353;28;20202;-75
2022/05/12 02:17:50;;;;;;;5.60;5.07;;;16.70;99.90;;;;;;5070655;28;20233;-76
2022/05/12 02:20:18;;;;;;;5.15;4.75;;;16.70;99.90;;;;;;5070277;28;20638;-69
2022/05/12 02:22:45;;;;;;;5.53;5.03;;;16.70;99.90;;;;;;5070604;28;20681;-80
2022/05/12 02:25:13;;;;;;;6.15;5.15;;;16.80;99.90;;;;;;5069972;28;20210;-78
2022/05/12 02:27:42;;;;;;;6.57;4.68;;;16.70;99.90;;;;;;5070573;28;20255;-74
2022/05/12 02:30:11;;;;;;;5.60;5.10;;;16.60;99.90;;;;;;5071482;28;20202;-70
2022/05/12 02:32:40;;;;;;;5.35;4.25;;;16.60;99.90;;;;;;5074499;28;20696;-76
2022/05/12 02:35:08;;;;;;;5.53;4.85;;;16.60;99.90;;;;;;5074441;28;20255;-70
2022/05/12 02:37:35;;;;;;;6.00;5.40;;;16.60;99.90;;;;;;5074881;28;20269;-75
2022/05/12 02:40:02;;;;;;;7.43;4.55;;;16.60;99.90;;;;;;5074362;28;20739;-76
2022/05/12 02:42:29;;;;;;;6.40;4.63;;;16.60;99.90;;;;;;5073912;28;20252;-75
2022/05/12 02:44:56;;;;;;;5.90;4.97;;;16.70;99.90;;;;;;5074289;28;20275;-71
2022/05/12 02:47:23;;;;;;;8.15;5.25;;;16.80;99.90;;;;;;5073770;28;20202;-78
2022/05/12 02:49:51;;;;;;;5.50;5.05;;;16.70;99.90;;;;;;5074114;28;20209;-78
2022/05/12 02:52:18;;;;;;;10.00;5.05;;;16.70;99.90;;;;;;5073673;28;20661;-75
2022/05/12 02:54:45;;;;;;;4.78;4.22;;;16.60;99.90;;;;;;5073996;28;20206;-77
2022/05/12 02:57:12;;;;;;;6.47;5.35;;;16.60;99.90;;;;;;5073752;28;20260;-77
2022/05/12 02:59:39;;;;;;;5.50;4.55;;;16.60;99.90;;;;;;5073913;28;20234;-77
2022/05/12 03:02:06;;;;;;;4.60;4.20;;;16.70;99.90;;;;;;5074019;28;20206;-72
2022/05/12 03:04:34;;;;;;;5.28;4.88;;;16.80;99.90;;;;;;5074506;28;20259;-78
2022/05/12 03:07:02;;;;;;;4.43;4.03;;;17.00;99.90;;;;;;5074126;28;20293;-77
2022/05/12 03:09:29;;;;;;;5.43;4.38;;;16.80;99.90;;;;;;5073269;28;20735;-76
2022/05/12 03:11:56;;;;;;;5.70;3.95;;;16.60;99.90;;;;;;5073625;28;20786;-74
2022/05/12 03:14:23;;;;;;;7.85;4.90;;;16.70;99.90;;;;;;5073342;28;20259;-75
2022/05/12 03:16:52;;;;;;;5.10;4.70;;;16.90;99.90;;;;;;5073508;28;20198;-75
2022/05/12 03:19:20;;;;;;;7.13;4.03;;;16.70;99.90;;;;;;5073386;28;20732;-75
2022/05/12 03:21:47;;;;;;;6.53;5.55;;;16.60;99.90;;;;;;5073865;28;20616;-74
2022/05/12 03:24:16;;;;;;;6.95;4.82;;;16.50;99.90;;;;;;5073226;28;20206;-75
2022/05/12 03:26:43;;;;;;;4.97;4.25;;;16.50;99.90;;;;;;5073550;28;20210;-72
2022/05/12 03:29:10;;;;;;;6.35;5.45;;;16.40;99.90;;;;;;5072765;28;20221;-74
2022/05/12 03:31:37;;;;;;;6.25;4.78;;;16.50;99.90;;;;;;5073355;28;20608;-74
2022/05/12 03:34:06;;;;;;;4.97;4.55;;;16.60;99.90;;;;;;5073571;28;20205;-79
2022/05/12 03:36:35;;;;;;;6.47;4.75;;;16.60;99.90;;;;;;5073853;28;20202;-72
2022/05/12 03:39:03;;;;;;;7.82;4.85;;;16.40;99.90;;;;;;5073245;28;20328;-72
2022/05/12 03:41:32;;;;;;;5.03;4.53;;;16.50;99.90;;;;;;5071932;28;20203;-76
2022/05/12 03:46:46;;;;;;;6.28;5.50;;;16.60;99.90;;;;;;5055650;28;20693;-77
2022/05/12 03:49:13;;;;;;;8.25;5.65;;;16.70;99.90;;;;;;5072913;28;20611;-78
2022/05/12 03:51:40;;;;;;;7.30;5.68;;;16.50;99.90;;;;;;5072974;28;20610;-75
2022/05/12 03:54:07;;;;;;;7.07;6.38;;;16.40;99.90;;;;;;5072599;28;20208;-71
2022/05/12 03:56:36;;;;;;;5.40;4.90;;;16.60;99.90;;;;;;5073337;28;20579;-71
2022/05/12 03:59:05;;;;;;;6.78;5.55;;;16.60;99.90;;;;;;5073074;28;20234;-71
2022/05/12 04:01:33;;;;;;;7.50;5.38;;;16.60;99.90;;;;;;5072847;28;20298;-71
2022/05/12 04:04:00;;;;;;;6.50;5.05;;;16.60;99.90;;;;;;5072729;28;20210;-71
2022/05/12 04:06:27;;;;;;;7.05;5.35;;;16.70;99.90;;;;;;5072020;28;20210;-71
2022/05/12 04:08:54;;;;;;;10.07;4.82;;;16.70;99.90;;;;;;5072561;28;20206;-71
2022/05/12 04:11:21;;;;;;;6.70;5.53;;;16.80;99.90;;;;;;5072192;28;20241;-71
2022/05/12 04:13:50;;;;;;;8.20;5.97;;;16.80;99.90;;;;;;5072795;28;20234;-72
2022/05/12 04:16:18;;;;;;;8.88;5.10;;;16.60;99.90;;;;;;5072173;28;20629;-73
2022/05/12 04:18:45;;;;;;;8.15;6.22;;;16.70;99.90;;;;;;5072459;28;20230;-74
2022/05/12 04:21:12;;;;;;;7.00;5.68;;;16.80;99.90;;;;;;5071748;28;20252;-75
2022/05/12 04:23:39;;;;;;;8.38;6.07;;;16.90;99.90;;;;;;5072354;28;20210;-74
2022/05/12 04:26:06;;;;;;;6.53;5.47;;;16.70;99.90;;;;;;5072527;28;20280;-74
2022/05/12 04:28:34;;;;;;;6.60;5.93;;;16.60;99.90;;;;;;5072492;28;20203;-74
2022/05/12 04:31:03;;;;;;;7.60;5.25;;;16.60;99.90;;;;;;5072578;28;20293;-74
2022/05/12 04:36:15;;;;;;;6.22;5.63;;;16.80;99.90;;;;;;5071329;28;20212;-75
2022/05/12 04:38:42;;;;;;;8.90;6.40;;;16.50;99.90;;;;;;5072004;28;20230;-73
2022/05/12 04:41:09;;;;;;;6.95;5.43;;;16.50;99.90;;;;;;5071452;28;20263;-73
2022/05/12 04:43:36;;;;;;;7.85;6.35;;;16.50;99.90;;;;;;5072197;28;20666;-73
2022/05/12 04:46:04;;;;;;;6.32;5.35;;;16.50;99.90;;;;;;5072336;28;20666;-73
2022/05/12 04:48:31;;;;;;;7.13;6.03;;;16.50;99.90;;;;;;5071788;28;20210;-74
2022/05/12 04:50:59;;;;;;;6.95;5.80;;;16.70;99.90;;;;;;5071861;28;20553;-73
2022/05/12 04:53:27;;;;;;;6.43;5.57;;;17.00;99.90;;;;;;5071319;28;20202;-73
2022/05/12 04:55:54;;;;;;;6.13;5.45;;;16.90;99.90;;;;;;5071802;28;20207;-74
2022/05/12 04:58:21;;;;;;;8.55;5.75;;;16.60;99.90;;;;;;5070770;28;20694;-75
2022/05/12 05:00:48;;;;;;;5.68;5.07;;;16.60;99.90;;;;;;5071428;28;20241;-74
2022/05/12 05:03:17;;;;;;;6.63;5.78;;;16.60;99.90;;;;;;5070598;28;20210;-75
2022/05/12 05:05:44;;;;;;;7.57;5.32;;;16.60;99.90;;;;;;5071431;28;20203;-74
2022/05/12 05:08:14;;;;;;;10.13;5.85;;;16.50;99.90;;;;;;5070898;28;20663;-74
2022/05/12 05:10:41;;;;;;;7.47;5.50;;;16.40;99.90;;;;;;5071629;28;20285;-74
2022/05/12 05:13:09;;;;;;;6.70;5.85;;;16.50;99.90;;;;;;5070670;28;20256;-74
2022/05/12 05:15:36;;;;;;;10.73;6.03;;;16.50;99.90;;;;;;5071607;28;20210;-75
2022/05/12 05:18:03;;;;;;;6.47;5.90;;;16.40;99.90;;;;;;5071485;28;20731;-74
2022/05/12 05:20:32;;;;;;;5.80;5.30;;;16.40;99.90;;;;;;5070931;28;20199;-72
2022/05/12 05:22:59;;;;;;;6.65;6.05;;;16.30;99.90;;;;;;5071206;28;20669;-74
2022/05/12 05:25:26;;;;;;;6.43;5.82;;;16.40;99.90;;;;;;5070586;28;20210;-74
2022/05/12 05:27:55;;;;;;;9.68;7.18;;;16.40;99.90;;;;;;5071166;28;20206;-73
2022/05/12 05:30:25;;;;;;;6.95;6.25;;;16.50;99.90;;;;;;5070873;28;20568;-73
2022/05/12 05:32:52;;;;;;;7.07;6.32;;;16.50;99.90;;;;;;5070961;28;20669;-75
2022/05/12 05:35:20;;;;;;;7.28;6.57;;;16.60;99.90;;;;;;5070811;28;20202;-74
2022/05/12 05:37:50;;;;;;;6.35;5.68;;;16.50;99.90;;;;;;5070991;28;20210;-75
2022/05/12 05:40:25;;;;;;;7.45;6.60;;;16.60;99.90;;;;;;5070341;28;20233;-74
2022/05/12 05:42:53;;;;;;;9.52;6.45;;;16.70;99.90;;;;;;5070936;28;20344;-73
2022/05/12 05:45:21;;;;;;;6.45;5.43;;;16.70;99.90;;;;;;5070732;28;20201;-74
2022/05/12 05:47:50;;;;;;;7.70;6.45;;;16.80;99.90;;;;;;5070814;28;20739;-73
2022/05/12 05:50:19;;;;;;;8.48;6.60;;;16.90;99.90;;;;;;5070580;28;20221;-73
2022/05/12 05:55:32;;;;;;;9.40;5.65;;;17.10;99.90;;;;;;5070370;28;20213;-74
2022/05/12 05:58:00;;;;;;;7.72;6.80;;;17.10;99.90;;;;;;5070942;28;20210;-73
2022/05/12 06:00:28;;;;;;;8.90;7.60;;;17.30;99.90;;;;;;5070300;28;20291;-73
2022/05/12 06:02:55;;;;;;;8.07;5.75;;;17.40;99.90;;;;;;5070596;28;20198;-73
2022/05/12 06:05:22;;;;;;;6.13;5.22;;;17.50;99.90;;;;;;5069921;28;20202;-73
2022/05/12 06:07:49;;;;;;;9.07;6.15;;;17.50;99.90;;;;;;5070739;28;20267;-74
2022/05/12 06:10:17;;;;;;;15.80;7.05;;;17.20;99.90;;;;;;5070389;28;20202;-74
2022/05/12 06:12:46;;;;;;;5.55;4.97;;;17.00;99.90;;;;;;5070865;28;20247;-73
2022/05/12 06:15:13;;;;;;;7.70;5.57;;;17.20;99.90;;;;;;5070152;28;20198;-73
2022/05/12 06:17:41;;;;;;;26.58;6.43;;;17.00;99.90;;;;;;5070355;28;20259;-73
2022/05/12 06:20:10;;;;;;;9.07;5.97;;;17.00;99.90;;;;;;5070053;28;20716;-73
2022/05/12 06:22:38;;;;;;;14.70;5.80;;;17.20;99.90;;;;;;5070838;28;20238;-74
2022/05/12 06:25:07;;;;;;;7.53;5.55;;;17.20;99.90;;;;;;5070835;28;20205;-73
2022/05/12 06:27:35;;;;;;;7.38;5.18;;;17.30;99.90;;;;;;5070539;28;20209;-73
2022/05/12 06:30:05;;;;;;;7.18;5.57;;;17.50;99.90;;;;;;5070935;28;20640;-74
2022/05/12 06:32:33;;;;;;;6.05;5.03;;;17.50;99.90;;;;;;5069977;28;20202;-74
2022/05/12 06:34:59;;;;;;;10.75;5.93;;;17.80;99.90;;;;;;5070347;28;20210;-74
2022/05/12 06:37:26;;;;;;;7.50;5.53;;;17.90;99.90;;;;;;5069910;28;20681;-74
2022/05/12 06:39:53;;;;;;;8.07;6.07;;;17.90;99.90;;;;;;5070217;28;20287;-73
2022/05/12 06:42:22;;;;;;;9.73;4.72;;;17.80;99.90;;;;;;5069991;28;20206;-73
2022/05/12 06:44:50;;;;;;;5.38;4.75;;;17.70;99.90;;;;;;5070258;28;20202;-72
2022/05/12 06:47:18;;;;;;;12.75;5.95;;;17.70;99.90;;;;;;5069701;28;20238;-73
2022/05/12 06:49:50;;;;;;;7.03;5.65;;;18.00;99.90;;;;;;5070536;28;20198;-73
2022/05/12 06:52:18;;;;;;;9.90;5.30;;;18.20;99.90;;;;;;5069883;28;20211;-73
2022/05/12 06:54:45;;;;;;;9.65;5.72;;;18.50;99.90;;;;;;5070361;28;20206;-74
2022/05/12 06:57:19;;;;;;;12.35;7.00;;;18.60;99.90;;;;;;5069936;28;20259;-73
2022/05/12 06:59:46;;;;;;;7.30;5.97;;;18.70;99.90;;;;;;5069891;28;20229;-74
2022/05/12 07:02:13;;;;;;;10.30;5.07;;;18.80;99.90;;;;;;5069951;28;20203;-74
2022/05/12 07:04:41;;;;;;;8.25;5.30;;;19.10;99.90;;;;;;5070100;28;20206;-74
2022/05/12 07:07:08;;;;;;;11.40;5.50;;;19.10;99.90;;;;;;5069984;28;20202;-76
2022/05/12 07:09:37;;;;;;;9.73;6.00;;;18.80;99.90;;;;;;5070447;28;20206;-75
2022/05/12 07:12:04;;;;;;;7.75;5.70;;;18.50;99.90;;;;;;5070312;28;20198;-72
2022/05/12 07:14:32;;;;;;;9.77;4.72;;;18.30;99.90;;;;;;5069912;28;20297;-74
2022/05/12 07:16:59;;;;;;;13.23;5.38;;;18.30;99.90;;;;;;5070802;28;20662;-74
2022/05/12 07:19:26;;;;;;;8.25;6.03;;;18.30;99.90;;;;;;5073221;28;20939;-74
2022/05/12 07:27:37;;;;;;;6.03;5.22;;;18.20;99.90;;;;;;5073446;28;20207;-74
2022/05/12 07:30:05;;;;;;;9.57;5.65;;;18.30;99.90;;;;;;5073586;28;20238;-74
2022/05/12 07:32:32;;;;;;;8.32;5.82;;;18.20;99.90;;;;;;5073323;28;20260;-74
2022/05/12 07:34:59;;;;;;;9.55;5.07;;;18.40;99.90;;;;;;5073116;28;20661;-72
2022/05/12 07:37:28;;;;;;;9.95;5.43;;;18.10;99.90;;;;;;5072846;28;20289;-73
2022/05/12 07:39:55;;;;;;;14.43;5.60;;;18.20;99.90;;;;;;5073044;28;20234;-73
2022/05/12 07:42:22;;;;;;;8.43;4.60;;;18.30;99.90;;;;;;5072754;28;20259;-73
2022/05/12 07:44:49;;;;;;;10.32;5.18;;;18.30;99.90;;;;;;5072884;28;20255;-73
2022/05/12 07:47:16;;;;;;;9.23;4.45;;;18.40;99.90;;;;;;5072772;28;20249;-74
2022/05/12 07:49:43;;;;;;;7.72;4.90;;;18.60;99.90;;;;;;5072997;28;20252;-76
2022/05/12 07:52:14;;;;;;;8.52;4.95;;;18.70;99.90;;;;;;5072395;28;20206;-73
2022/05/12 07:54:42;;;;;;;9.02;5.63;;;18.70;99.90;;;;;;5072989;28;20207;-74
2022/05/12 07:57:09;;;;;;;9.82;4.30;;;18.70;99.90;;;;;;5072670;28;20297;-75
2022/05/12 07:59:37;;;;;;;7.10;4.25;;;18.60;99.90;;;;;;5072670;28;20272;-73
2022/05/12 08:02:04;;;;;;;5.53;4.45;;;18.20;99.90;;;;;;5072983;28;20198;-74
2022/05/12 08:04:32;;;;;;;6.60;4.85;;;18.40;99.90;;;;;;5072586;28;20205;-73
2022/05/12 08:07:01;;;;;;;8.90;4.93;;;18.40;99.90;;;;;;5073050;28;20210;-74
2022/05/12 08:09:28;;;;;;;5.90;3.97;;;18.30;99.90;;;;;;5072369;28;20324;-73
2022/05/12 08:11:56;;;;;;;7.72;4.63;;;18.40;99.90;;;;;;5072736;28;20206;-73
2022/05/12 08:14:23;;;;;;;13.63;5.43;;;18.60;99.90;;;;;;5072016;28;20658;-73
2022/05/12 08:16:50;;;;;;;8.75;5.20;;;19.50;99.90;;;;;;5072466;28;20557;-76
2022/05/12 08:19:17;;;;;;;7.50;4.15;;;19.70;99.90;;;;;;5072073;28;20662;-73
2022/05/12 08:21:44;;;;;;;6.22;4.85;;;19.40;99.90;;;;;;5072442;28;20674;-74
2022/05/12 08:24:11;;;;;;;12.48;5.40;;;19.50;99.90;;;;;;5072078;28;20202;-74
2022/05/12 08:26:38;;;;;;;6.50;4.72;;;19.90;99.90;;;;;;5071989;28;20206;-74
2022/05/12 08:29:08;;;;;;;4.78;4.00;;;19.90;99.90;;;;;;5072117;28;20252;-77
2022/05/12 08:31:34;;;;;;;8.00;4.07;;;19.70;99.90;;;;;;5072561;28;20283;-76
2022/05/12 08:34:01;;;;;;;10.05;5.13;;;19.60;99.90;;;;;;5072608;28;20202;-76
2022/05/12 08:36:29;;;;;;;6.90;5.07;;;19.60;99.90;;;;;;5071838;28;20206;-76
2022/05/12 08:38:56;;;;;;;8.40;5.82;;;19.50;99.90;;;;;;5071873;28;20682;-77
2022/05/12 08:41:32;;;;;;;9.25;4.95;;;19.60;99.90;;;;;;5071408;28;20234;-76
2022/05/12 08:44:01;;;;;;;9.38;5.43;;;19.50;99.90;;;;;;5071967;28;20259;-75
2022/05/12 08:46:43;;;;;;;10.20;5.07;;;19.70;99.90;;;;;;5071772;28;20210;-75
2022/05/12 08:49:19;;;;;;;9.82;5.20;;;19.60;99.90;;;;;;5071305;28;20201;-76
2022/05/12 08:51:50;;;;;;;12.95;4.45;;;19.70;99.90;;;;;;5071632;28;20210;-76
2022/05/12 08:54:21;;;;;;;9.38;4.75;;;20.30;99.90;;;;;;5071555;28;20206;-76
2022/05/12 08:56:52;;;;;;;6.53;4.63;;;20.60;99.90;;;;;;5071284;28;20202;-76
2022/05/12 08:59:19;;;;;;;8.50;4.63;;;20.30;99.90;;;;;;5071228;28;20615;-78
2022/05/12 09:01:56;;;;;;;6.90;4.18;;;20.10;99.90;;;;;;5071656;28;20210;-76
2022/05/12 09:04:37;;;;;;;8.75;5.00;;;20.20;99.90;;;;;;5071233;28;20560;-76
2022/05/12 09:07:12;;;;;;;7.72;4.68;;;20.30;99.90;;;;;;5071918;28;20298;-76
2022/05/12 09:09:45;;;;;;;12.02;4.80;;;20.90;99.90;;;;;;5071544;28;20267;-76
2022/05/12 09:12:25;;;;;;;10.85;5.03;;;21.10;99.90;;;;;;5070726;28;20202;-76
2022/05/12 09:14:57;;;;;;;8.90;4.97;;;21.00;99.90;;;;;;5071224;28;20244;-76
2022/05/12 09:17:32;;;;;;;8.30;4.95;;;21.80;99.90;;;;;;5070866;28;20202;-76
2022/05/12 09:20:01;;;;;;;7.50;4.32;;;22.20;99.90;;;;;;5071075;28;20291;-76
2022/05/12 09:22:30;;;;;;;8.18;4.60;;;21.60;99.90;;;;;;5070911;28;20217;-76
2022/05/12 09:24:58;;;;;;;9.07;4.97;;;20.60;99.90;;;;;;5070974;28;20670;-76
2022/05/12 09:27:32;;;;;;;5.03;4.50;;;21.00;99.90;;;;;;5070603;28;20198;-77
2022/05/12 09:30:02;;;;;;;11.57;4.70;;;21.10;99.90;;;;;;5071021;28;20216;-78
2022/05/12 09:32:34;;;;;;;9.88;3.78;;;23.50;99.90;;;;;;5070572;28;20647;-75
2022/05/12 09:35:09;;;;;;;9.25;4.35;;;23.40;99.90;;;;;;5071151;28;20255;-76
2022/05/12 09:37:36;;;;;;;8.45;4.30;;;23.10;99.90;;;;;;5071329;28;20197;-77
2022/05/12 09:40:17;;;;;;;6.53;4.82;;;22.50;99.90;;;;;;5069992;28;20261;-75
2022/05/12 09:42:46;;;;;;;7.22;4.00;;;22.30;99.90;;;;;;5071009;28;20202;-77
2022/05/12 09:45:26;;;;;;;11.15;5.78;;;23.70;99.90;;;;;;5070769;28;20198;-76
2022/05/12 09:50:49;;;;;;;12.77;4.75;;;23.00;99.90;;;;;;5108892;27;20602;-74
2022/05/12 09:53:26;;;;;;;8.60;5.03;;;21.70;99.90;;;;;;5108378;28;20196;-74
2022/05/12 09:56:03;;;;;;;7.35;4.10;;;22.20;99.90;;;;;;5108325;28;20201;-73
2022/05/12 09:58:34;;;;;;;6.25;4.65;;;22.30;99.90;;;;;;5108140;28;20616;-74
2022/05/12 10:01:18;;;;;;;9.00;5.22;;;21.60;99.90;;;;;;5108840;28;20201;-73
2022/05/12 10:09:21;;;;;;;10.02;4.47;;;21.80;99.90;;;;;;5107681;28;20243;-76
2022/05/12 10:11:53;;;;;;;7.70;5.13;;;21.90;99.90;;;;;;5108530;28;20261;-76
2022/05/12 10:14:39;;;;;;;11.68;4.80;;;21.40;99.90;;;;;;5107759;28;20201;-76
2022/05/12 10:17:21;;;;;;;10.93;5.63;;;21.80;99.90;;;;;;5108419;28;20683;-75
2022/05/12 10:19:49;;;;;;;7.18;4.13;;;21.70;99.90;;;;;;5108097;28;20208;-78
2022/05/12 10:22:19;;;;;;;9.30;4.97;;;22.50;99.90;;;;;;5107855;28;20227;-75
2022/05/12 10:24:58;;;;;;;6.50;4.47;;;22.80;99.90;;;;;;5107882;28;20201;-75
2022/05/12 10:27:36;;;;;;;10.77;5.28;;;24.40;99.90;;;;;;5107320;28;20642;-75
2022/05/12 10:30:17;;;;;;;8.73;5.38;;;23.20;99.90;;;;;;5108140;28;20776;-76
2022/05/12 10:32:54;;;;;;;5.55;4.97;;;22.80;99.90;;;;;;5107774;28;20205;-78
2022/05/12 10:35:28;;;;;;;9.18;5.38;;;23.30;99.90;;;;;;5107477;28;20226;-74
2022/05/12 10:38:05;;;;;;;7.00;4.95;;;23.20;99.90;;;;;;5107610;28;20205;-74
2022/05/12 10:40:39;;;;;;;9.30;5.18;;;23.40;99.90;;;;;;5107278;28;20204;-74
2022/05/12 10:43:42;;;;;;;5.50;4.93;;;22.20;99.90;;;;;;5107940;28;20252;-77
2022/05/12 10:46:14;;;;;;;9.45;6.25;;;21.70;99.90;;;;;;5107363;28;20209;-75
2022/05/12 10:48:49;;;;;;;7.78;5.28;;;22.70;99.90;;;;;;5107283;28;20213;-74
2022/05/12 10:51:24;;;;;;;7.60;5.53;;;23.10;99.90;;;;;;5107217;28;20208;-74
2022/05/12 10:54:09;;;;;;;7.72;5.45;;;23.40;99.90;;;;;;5107337;28;20232;-74
2022/05/12 10:56:42;;;;;;;8.50;6.47;;;23.60;99.90;;;;;;5107525;28;20284;-75
2022/05/12 10:59:38;;;;;;;6.22;5.50;;;22.70;99.90;;;;;;5106961;28;20212;-74
2022/05/12 11:02:10;;;;;;;8.18;5.30;;;23.00;99.90;;;;;;5075559;28;20201;-75
2022/05/12 11:04:42;;;;;;;9.65;6.07;;;23.20;99.90;;;;;;5093744;28;20262;-73
2022/05/12 11:07:13;;;;;;;8.40;6.25;;;23.60;99.90;;;;;;5092997;28;20574;-73
2022/05/12 11:09:48;;;;;;;7.95;5.70;;;23.90;99.90;;;;;;5093522;28;20225;-74
2022/05/12 11:12:23;;;;;;;7.43;5.72;;;24.10;99.90;;;;;;5092913;28;20258;-73
2022/05/12 11:14:56;;;;;;;11.95;7.57;;;23.90;99.90;;;;;;5093325;28;20201;-74
2022/05/12 11:17:32;;;;;;;9.55;5.57;;;22.90;99.90;;;;;;5093124;28;20240;-74
2022/05/12 11:20:04;;;;;;;8.48;5.47;;;24.00;99.90;;;;;;5093457;28;20274;-74
2022/05/12 11:22:39;;;;;;;9.82;5.80;;;23.60;99.90;;;;;;5093117;28;20216;-76
2022/05/12 11:25:16;;;;;;;7.68;6.82;;;23.80;99.90;;;;;;5093751;28;20250;-74
2022/05/12 11:27:51;;;;;;;10.40;6.50;;;24.20;99.90;;;;;;5093116;28;20216;-75
2022/05/12 11:30:32;;;;;;;11.27;6.22;;;23.80;99.90;;;;;;5092802;28;20225;-75
2022/05/12 11:33:20;;;;;;;5.72;5.20;;;23.50;99.90;;;;;;5093256;28;20201;-75
2022/05/12 11:35:51;;;;;;;10.98;6.40;;;23.30;99.90;;;;;;5093008;28;20202;-75
2022/05/12 11:38:48;;;;;;;11.98;6.38;;;23.70;99.90;;;;;;5092741;28;20727;-75
2022/05/12 11:41:44;;;;;;;8.18;6.03;;;24.10;99.90;;;;;;5092769;28;20251;-74
2022/05/12 11:44:28;;;;;;;8.02;5.57;;;23.40;99.90;;;;;;5092709;28;20201;-75
2022/05/12 11:47:19;;;;;;;6.80;5.07;;;23.20;99.90;;;;;;5091273;28;20251;-74
2022/05/12 11:50:09;;;;;;;9.63;6.85;;;24.40;99.90;;;;;;5092371;28;20588;-74
2022/05/12 11:52:47;;;;;;;8.70;6.10;;;24.80;99.90;;;;;;5092871;28;20205;-73
2022/05/12 11:55:25;;;;;;;10.23;6.03;;;25.00;99.90;;;;;;5092363;28;20202;-74
2022/05/12 11:58:09;;;;;;;7.57;5.78;;;25.50;99.90;;;;;;5092671;28;20210;-74
2022/05/12 12:00:59;;;;;;;10.07;6.00;;;25.10;99.90;;;;;;5092499;28;20208;-74
2022/05/12 12:03:58;;;;;;;9.25;5.13;;;25.20;99.90;;;;;;5092152;28;20576;-75
2022/05/12 12:06:44;;;;;;;7.95;5.07;;;24.80;99.90;;;;;;5091742;28;20581;-74
2022/05/12 12:09:53;;;;;;;9.32;5.88;;;25.20;99.90;;;;;;5092007;28;20238;-73
2022/05/12 12:13:00;;;;;;;7.00;6.30;;;24.80;99.90;;;;;;5091032;28;20209;-74
2022/05/12 12:15:57;;;;;;;9.77;6.15;;;24.30;99.90;;;;;;5091804;28;20227;-74
2022/05/12 12:18:53;;;;;;;9.00;5.85;;;24.70;99.90;;;;;;5091783;28;20583;-73
2022/05/12 12:21:47;;;;;;;12.65;5.47;;;24.80;99.90;;;;;;5088216;28;20669;-73
2022/05/12 12:24:43;;;;;;;6.13;4.93;;;24.60;99.90;;;;;;5091787;28;20661;-74
2022/05/12 12:28:13;;;;;;;9.43;5.93;;;24.60;99.90;;;;;;5091592;28;20208;-74
2022/05/12 12:31:07;;;;;;;7.57;5.88;;;25.10;99.90;;;;;;5091980;28;20228;-74
2022/05/12 12:33:58;;;;;;;11.63;6.30;;;25.20;99.90;;;;;;5092181;28;20202;-75
2022/05/12 12:37:00;;;;;;;9.82;5.45;;;25.20;99.90;;;;;;5091587;28;20205;-74
2022/05/12 12:39:49;;;;;;;12.18;5.68;;;25.00;99.90;;;;;;5091389;28;20301;-75
2022/05/12 12:42:44;;;;;;;8.05;5.57;;;25.10;99.90;;;;;;5091556;28;20208;-74
2022/05/12 12:45:15;;;;;;;9.98;5.95;;;25.70;99.90;;;;;;5091434;28;20206;-73
2022/05/12 12:47:52;;;;;;;8.10;5.65;;;25.00;99.90;;;;;;5091535;28;20209;-73
2022/05/12 12:50:29;;;;;;;9.07;5.80;;;25.60;99.90;;;;;;5091083;28;20302;-73
2022/05/12 12:52:56;;;;;;;8.13;5.30;;;26.00;99.90;;;;;;5091597;28;20789;-73
2022/05/12 12:58:14;;;;;;;8.00;4.82;;;25.90;99.90;;;;;;5091383;28;20275;-73
2022/05/12 13:00:42;;;;;;;8.52;5.75;;;25.40;99.90;;;;;;5091305;28;20197;-74
2022/05/12 13:03:19;;;;;;;10.13;5.55;;;25.70;99.90;;;;;;5090742;28;20292;-74
2022/05/12 13:05:48;;;;;;;8.43;5.55;;;25.60;99.90;;;;;;5091517;28;20201;-73
2022/05/12 13:08:25;;;;;;;8.80;5.38;;;25.40;99.90;;;;;;5091040;28;20289;-75
2022/05/12 13:10:58;;;;;;;10.32;5.97;;;25.70;99.90;;;;;;5091337;28;20610;-74
2022/05/12 13:13:26;;;;;;;8.15;5.40;;;25.90;99.90;;;;;;5090876;28;20251;-74
2022/05/12 13:15:57;;;;;;;8.90;5.82;;;26.00;99.90;;;;;;5091376;28;20233;-73
2022/05/12 13:18:30;;;;;;;8.20;5.68;;;25.90;99.90;;;;;;5090648;28;20208;-73
2022/05/12 13:20:59;;;;;;;10.45;5.40;;;25.60;99.90;;;;;;5091156;28;20252;-74
2022/05/12 13:23:28;;;;;;;9.30;6.70;;;25.90;99.90;;;;;;5090770;28;20213;-72
2022/05/12 13:25:56;;;;;;;11.55;5.05;;;26.00;99.90;;;;;;5091255;28;20202;-75
2022/05/12 13:28:25;;;;;;;6.22;5.00;;;25.80;99.90;;;;;;5090814;28;20532;-73
2022/05/12 13:31:10;;;;;;;11.75;5.35;;;26.30;99.90;;;;;;5090922;28;20271;-74
2022/05/12 13:33:38;;;;;;;6.50;4.38;;;26.50;99.90;;;;;;5091013;28;20265;-75